Wetter

ACHTUNG: Die hier angeboten Wetter-Informationen sind nicht geeicht und dürfen für Flugvorbereitungen nicht verwendet werden
ACG Flugwetter

METAR/TAF LOXZ

LOXZ 240550Z VRB02KT 9999 FEW007 14/13 Q1009 NOSIG

TAF LOXZ 181415Z 1812/1824 CNL

METAR/TAF LOXA

LOXA 100820Z VRB02KT 50KM FEW120AC SCT300CI 17/13 Q1021 NOSIG RMK SCT

TAF TAF LOXA 090515Z 0906/0918 VRB03KT 0500 FG SCT060 BECMG 0906/0908 9999 NSW FEW060 BECMG 0909/0911 04007KT TEMPO 0910/0915 SCT060 BKN100

METAR/TAF LOWG 

LOWG 240550Z VRB02KT 9999 FEW004 18/15 Q1008 NOSIG

TAF TAF COR LOWG 240515Z 2406/2506 15006KT 9999 SCT040 TX25/2412Z TN16/2503Z TEMPO 2410/2502 SCT040 FEW040CB TEMPO 2411/2417 16009KT PROB40 TEMPO 2416/2419 35015G30KT 2000 +TSRA SHRA PROB30 TEMPO 2500/2502 SHRA TSRA

(Information der letzten Stunde)

(Information der letzten Stunde)

Dichtehöhe (in LOGT)
Temperatur / Windchill der letzten 10 Tage

Ext. Links zu Wetterdiensten

ALDIS

Öster.- Unwetterzentrale